Wallace, Idaho
Current Conditions -  °F | °C
As of 1:53 PM on Thursday 27 Nov 2014 (Local Time) from KMLP Reporting Station
Light Rain Light Rain  
Wind Chill: 27°   Ceiling: 800
Heat Index: 35°   Visibility: 5mi
Dew Point: 35°   Wind: 12mph
Humidity: 100%   Direction: 230°SW
Pressure: 29.88"   Gusts: 24mph
Location:  47.47°N, 115.93°W
Report Text: KMLP 272153Z AUTO 23010G21KT 210V270 5SM -RA BR SCT004 BKN008 OVC013 02/02 A2988 RMK AO2 SLP079 P0002 T00170017
Loading
Personal Weather Stations






























Interactive Weather Map New forecast layout! Learn more

10-Day Weather Forecast

Advertisements
Track Severe Weather on mobile